createdAt,value
2023-01-04T00:00:00.409Z,1013.78
2023-01-04T00:01:00.519Z,1013.78
2023-01-04T00:02:00.467Z,1013.71
2023-01-04T00:03:00.681Z,1013.71
2023-01-04T00:04:00.485Z,1013.71
2023-01-04T00:05:00.372Z,1013.71
2023-01-04T00:06:00.341Z,1013.69
2023-01-04T00:07:00.326Z,1013.67
2023-01-04T00:08:00.357Z,1013.64
2023-01-04T00:09:00.310Z,1013.70
2023-01-04T00:10:00.323Z,1013.61
2023-01-04T00:11:00.357Z,1013.58
2023-01-04T00:12:00.267Z,1013.60
2023-01-04T00:13:00.293Z,1013.57
2023-01-04T00:14:00.286Z,1013.55
2023-01-04T00:15:00.226Z,1013.57
2023-01-04T00:16:07.376Z,1013.49
2023-01-04T00:17:00.245Z,1013.54
2023-01-04T00:18:00.220Z,1013.55
2023-01-04T00:19:00.206Z,1013.49
2023-01-04T00:20:00.182Z,1013.47
2023-01-04T00:21:00.190Z,1013.36
2023-01-04T00:22:00.173Z,1013.35
2023-01-04T00:23:00.175Z,1013.38
2023-01-04T00:24:00.161Z,1013.29
2023-01-04T00:25:00.165Z,1013.21
2023-01-04T00:26:00.119Z,1013.32
2023-01-04T00:27:00.112Z,1013.27
2023-01-04T00:28:00.139Z,1013.26
2023-01-04T00:29:00.116Z,1013.19
2023-01-04T00:30:00.092Z,1013.15
2023-01-04T00:31:00.133Z,1013.22
2023-01-04T00:32:00.053Z,1013.21
2023-01-04T00:33:00.086Z,1013.17
2023-01-04T00:34:00.055Z,1013.14
2023-01-04T00:35:00.032Z,1013.11
2023-01-04T00:36:00.052Z,1013.09
2023-01-04T00:36:59.998Z,1013.12
2023-01-04T00:38:00.033Z,1013.07
2023-01-04T00:38:59.962Z,1013.00
2023-01-04T00:39:59.962Z,1012.96
2023-01-04T00:40:59.976Z,1012.95
2023-01-04T00:42:01.295Z,1012.94
2023-01-04T00:42:59.955Z,1012.86
2023-01-04T00:43:59.959Z,1012.85
2023-01-04T00:44:59.891Z,1012.71
2023-01-04T00:45:59.912Z,1012.74
2023-01-04T00:46:59.932Z,1012.69
2023-01-04T00:47:59.884Z,1012.72
2023-01-04T00:49:00.702Z,1012.67
2023-01-04T00:49:59.858Z,1012.62
2023-01-04T00:50:59.847Z,1012.63
2023-01-04T00:51:59.838Z,1012.64
2023-01-04T00:52:59.849Z,1012.57
2023-01-04T00:53:59.872Z,1012.59
2023-01-04T00:54:59.805Z,1012.55
2023-01-04T00:55:59.789Z,1012.57
2023-01-04T00:56:59.766Z,1012.52
2023-01-04T00:57:59.765Z,1012.53
2023-01-04T00:58:59.736Z,1012.54
2023-01-04T00:59:59.745Z,1012.52
2023-01-04T01:00:59.720Z,1012.50
2023-01-04T01:01:59.810Z,1012.50
2023-01-04T01:03:00.125Z,1012.40
2023-01-04T01:03:59.789Z,1012.40
2023-01-04T01:04:59.684Z,1012.39
2023-01-04T01:05:59.678Z,1012.36
2023-01-04T01:06:59.691Z,1012.29
2023-01-04T01:07:59.677Z,1012.33
2023-01-04T01:08:59.638Z,1012.36
2023-01-04T01:09:59.651Z,1012.28
2023-01-04T01:10:59.636Z,1012.32
2023-01-04T01:11:59.623Z,1012.28
2023-01-04T01:12:59.629Z,1012.27
2023-01-04T01:13:59.593Z,1012.25
2023-01-04T01:15:00.705Z,1012.22
2023-01-04T01:15:59.625Z,1012.20
2023-01-04T01:16:59.790Z,1012.09
2023-01-04T01:17:59.554Z,1012.08
2023-01-04T01:18:59.511Z,1012.09
2023-01-04T01:19:59.540Z,1012.05
2023-01-04T01:20:59.507Z,1012.10
2023-01-04T01:21:59.472Z,1012.03
2023-01-04T01:22:59.492Z,1012.06
2023-01-04T01:23:59.463Z,1012.07
2023-01-04T01:24:59.452Z,1012.01
2023-01-04T01:25:59.423Z,1011.99
2023-01-04T01:26:59.419Z,1012.02
2023-01-04T01:27:59.449Z,1011.96
2023-01-04T01:28:59.411Z,1012.02
2023-01-04T01:29:59.384Z,1012.02
2023-01-04T01:31:02.513Z,1011.98
2023-01-04T01:31:59.439Z,1011.95
2023-01-04T01:32:59.379Z,1011.94
2023-01-04T01:33:59.360Z,1011.93
2023-01-04T01:34:59.345Z,1011.90
2023-01-04T01:35:59.345Z,1011.84
2023-01-04T01:36:59.327Z,1011.91
2023-01-04T01:37:59.314Z,1011.78
2023-01-04T01:38:59.276Z,1011.84
2023-01-04T01:39:59.291Z,1011.80
2023-01-04T01:40:59.264Z,1011.79
2023-01-04T01:41:59.258Z,1011.77
2023-01-04T01:42:59.259Z,1011.73
2023-01-04T01:43:59.228Z,1011.75
2023-01-04T01:44:59.218Z,1011.66
2023-01-04T01:45:59.249Z,1011.65
2023-01-04T01:46:59.309Z,1011.65
2023-01-04T01:47:59.232Z,1011.64
2023-01-04T01:48:59.195Z,1011.64
2023-01-04T01:49:59.171Z,1011.55
2023-01-04T01:50:59.157Z,1011.58
2023-01-04T01:51:59.154Z,1011.52
2023-01-04T01:52:59.191Z,1011.50
2023-01-04T01:53:59.135Z,1011.54
2023-01-04T01:54:59.132Z,1011.45
2023-01-04T01:55:59.093Z,1011.56
2023-01-04T01:56:59.124Z,1011.47
2023-01-04T01:57:59.105Z,1011.47
2023-01-04T01:58:59.092Z,1011.45
2023-01-04T01:59:59.079Z,1011.44
2023-01-04T02:00:59.051Z,1011.46
2023-01-04T02:01:59.178Z,1011.45
2023-01-04T02:02:59.167Z,1011.51
2023-01-04T02:03:59.072Z,1011.46
2023-01-04T02:04:58.990Z,1011.49
2023-01-04T02:05:59.009Z,1011.49
2023-01-04T02:06:58.994Z,1011.46
2023-01-04T02:07:59.067Z,1011.50
2023-01-04T02:08:58.939Z,1011.46
2023-01-04T02:09:58.928Z,1011.45
2023-01-04T02:10:58.959Z,1011.53
2023-01-04T02:11:58.976Z,1011.47
2023-01-04T02:12:58.924Z,1011.43
2023-01-04T02:13:58.920Z,1011.43
2023-01-04T02:14:58.865Z,1011.40
2023-01-04T02:15:58.949Z,1011.38
2023-01-04T02:16:58.881Z,1011.36
2023-01-04T02:17:58.881Z,1011.39
2023-01-04T02:18:58.896Z,1011.33
2023-01-04T02:19:59.472Z,1011.32
2023-01-04T02:20:58.844Z,1011.32
2023-01-04T02:21:59.451Z,1011.30
2023-01-04T02:22:58.776Z,1011.30
2023-01-04T02:23:58.776Z,1011.22
2023-01-04T02:24:58.784Z,1011.21
2023-01-04T02:25:58.789Z,1011.28
2023-01-04T02:26:58.729Z,1011.26
2023-01-04T02:27:58.748Z,1011.28
2023-01-04T02:28:58.730Z,1011.21
2023-01-04T02:29:58.706Z,1011.16
2023-01-04T02:30:59.224Z,1011.20
2023-01-04T02:31:58.682Z,1011.06
2023-01-04T02:32:58.698Z,1011.05
2023-01-04T02:33:58.652Z,1011.03
2023-01-04T02:34:59.189Z,1011.11
2023-01-04T02:35:58.674Z,1011.02
2023-01-04T02:36:58.703Z,1010.99
2023-01-04T02:37:58.607Z,1010.92
2023-01-04T02:38:58.608Z,1010.89
2023-01-04T02:39:58.602Z,1010.86
2023-01-04T02:40:58.577Z,1010.83
2023-01-04T02:41:58.564Z,1010.70
2023-01-04T02:42:58.610Z,1010.59
2023-01-04T02:43:58.537Z,1010.66
2023-01-04T02:44:58.566Z,1010.69
2023-01-04T02:45:58.525Z,1010.64
2023-01-04T02:46:58.545Z,1010.60
2023-01-04T02:47:58.530Z,1010.61
2023-01-04T02:48:58.540Z,1010.64
2023-01-04T02:50:04.201Z,1010.55
2023-01-04T02:50:58.495Z,1010.52
2023-01-04T02:51:58.459Z,1010.59
2023-01-04T02:52:58.493Z,1010.54
2023-01-04T02:53:58.448Z,1010.51
2023-01-04T02:54:58.717Z,1010.48
2023-01-04T02:55:58.425Z,1010.38
2023-01-04T02:57:04.549Z,1010.36
2023-01-04T02:57:58.468Z,1010.40
2023-01-04T02:58:58.371Z,1010.43
2023-01-04T02:59:58.369Z,1010.41
2023-01-04T03:00:58.403Z,1010.41
2023-01-04T03:01:58.472Z,1010.44
2023-01-04T03:02:58.429Z,1010.40
2023-01-04T03:03:58.442Z,1010.19
2023-01-04T03:04:58.329Z,1010.16
2023-01-04T03:05:58.311Z,1010.28
2023-01-04T03:06:58.313Z,1010.36
2023-01-04T03:07:58.259Z,1010.31
2023-01-04T03:08:58.307Z,1010.30
2023-01-04T03:09:58.253Z,1010.30
2023-01-04T03:10:58.239Z,1010.13
2023-01-04T03:11:58.245Z,1010.14
2023-01-04T03:12:58.204Z,1010.15
2023-01-04T03:13:58.232Z,1010.22
2023-01-04T03:14:58.186Z,1010.09
2023-01-04T03:15:58.212Z,1010.15
2023-01-04T03:16:58.179Z,1010.02
2023-01-04T03:17:58.173Z,1010.14
2023-01-04T03:18:58.157Z,1010.05
2023-01-04T03:19:58.141Z,1010.07
2023-01-04T03:20:58.119Z,1009.97
2023-01-04T03:21:58.123Z,1009.94
2023-01-04T03:22:58.132Z,1010.01
2023-01-04T03:23:58.183Z,1010.03
2023-01-04T03:24:58.067Z,1010.04
2023-01-04T03:25:58.086Z,1010.03
2023-01-04T03:26:58.046Z,1010.04
2023-01-04T03:27:58.117Z,1009.96
2023-01-04T03:28:58.023Z,1010.03
2023-01-04T03:29:58.046Z,1009.89
2023-01-04T03:30:58.081Z,1009.91
2023-01-04T03:31:58.057Z,1009.97
2023-01-04T03:32:57.978Z,1009.93
2023-01-04T03:33:58.017Z,1009.84
2023-01-04T03:34:57.954Z,1009.85
2023-01-04T03:35:57.956Z,1009.83
2023-01-04T03:36:57.946Z,1009.78
2023-01-04T03:37:57.954Z,1009.74
2023-01-04T03:38:57.909Z,1009.75
2023-01-04T03:39:57.927Z,1009.74
2023-01-04T03:40:57.886Z,1009.69
2023-01-04T03:41:57.892Z,1009.76
2023-01-04T03:42:57.887Z,1009.61
2023-01-04T03:43:57.872Z,1009.76
2023-01-04T03:45:01.789Z,1009.67
2023-01-04T03:45:57.866Z,1009.69
2023-01-04T03:46:57.925Z,1009.70
2023-01-04T03:47:57.827Z,1009.59
2023-01-04T03:48:57.802Z,1009.48
2023-01-04T03:49:57.790Z,1009.56
2023-01-04T03:50:57.774Z,1009.63
2023-01-04T03:51:57.792Z,1009.67
2023-01-04T03:52:57.790Z,1009.63
2023-01-04T03:53:57.809Z,1009.52
2023-01-04T03:54:57.756Z,1009.63
2023-01-04T03:55:57.743Z,1009.50
2023-01-04T03:56:57.726Z,1009.51
2023-01-04T03:57:57.831Z,1009.39
2023-01-04T03:58:57.740Z,1009.43
2023-01-04T03:59:57.687Z,1009.38
2023-01-04T04:00:57.805Z,1009.34
2023-01-04T04:01:57.795Z,1009.21
2023-01-04T04:02:57.652Z,1009.21
2023-01-04T04:03:57.767Z,1009.26
2023-01-04T04:04:57.628Z,1009.19
2023-01-04T04:05:57.715Z,1009.17
2023-01-04T04:06:57.627Z,1009.15
2023-01-04T04:07:57.598Z,1009.16
2023-01-04T04:08:57.658Z,1009.12
2023-01-04T04:09:57.622Z,1009.06
2023-01-04T04:10:57.582Z,1009.02
2023-01-04T04:11:57.548Z,1009.07
2023-01-04T04:12:57.577Z,1008.99
2023-01-04T04:13:57.518Z,1009.02
2023-01-04T04:14:57.515Z,1008.99
2023-01-04T04:15:57.577Z,1008.90
2023-01-04T04:16:57.584Z,1008.94
2023-01-04T04:17:57.478Z,1008.94
2023-01-04T04:18:57.463Z,1008.92
2023-01-04T04:19:57.444Z,1008.88
2023-01-04T04:20:57.461Z,1008.87
2023-01-04T04:21:57.491Z,1008.84
2023-01-04T04:22:57.431Z,1008.77
2023-01-04T04:23:57.406Z,1008.90
2023-01-04T04:24:57.419Z,1008.84
2023-01-04T04:25:57.383Z,1008.89
2023-01-04T04:26:57.420Z,1008.80
2023-01-04T04:27:57.388Z,1008.89
2023-01-04T04:28:58.172Z,1008.85
2023-01-04T04:29:57.348Z,1008.87
2023-01-04T04:30:57.326Z,1008.86
2023-01-04T04:31:57.679Z,1008.84
2023-01-04T04:32:57.340Z,1008.85
2023-01-04T04:33:57.291Z,1008.76
2023-01-04T04:34:57.285Z,1008.83
2023-01-04T04:35:57.272Z,1008.85
2023-01-04T04:36:57.257Z,1008.79
2023-01-04T04:37:57.292Z,1008.88
2023-01-04T04:38:57.247Z,1008.80
2023-01-04T04:39:57.248Z,1008.84
2023-01-04T04:40:57.237Z,1008.83
2023-01-04T04:41:57.209Z,1008.75
2023-01-04T04:42:57.205Z,1008.83
2023-01-04T04:43:57.192Z,1008.86
2023-01-04T04:44:57.193Z,1008.92
2023-01-04T04:45:57.210Z,1008.89
2023-01-04T04:46:57.143Z,1008.85
2023-01-04T04:47:57.139Z,1008.88
2023-01-04T04:48:57.146Z,1008.75
2023-01-04T04:49:57.099Z,1008.75
2023-01-04T04:50:57.111Z,1008.77
2023-01-04T04:51:57.091Z,1008.77
2023-01-04T04:52:57.102Z,1008.85
2023-01-04T04:53:57.064Z,1008.86
2023-01-04T04:54:57.130Z,1008.87
2023-01-04T04:55:57.043Z,1008.81
2023-01-04T04:56:57.015Z,1008.77
2023-01-04T04:57:57.030Z,1008.89
2023-01-04T04:58:57.037Z,1008.78
2023-01-04T04:59:57.008Z,1008.76
2023-01-04T05:00:57.038Z,1008.76
2023-01-04T05:01:57.184Z,1008.78
2023-01-04T05:02:57.063Z,1008.84
2023-01-04T05:03:56.978Z,1008.84
2023-01-04T05:04:56.939Z,1008.78
2023-01-04T05:05:56.921Z,1008.78
2023-01-04T05:06:56.946Z,1008.82
2023-01-04T05:07:56.951Z,1008.90
2023-01-04T05:08:56.893Z,1008.85
2023-01-04T05:09:56.930Z,1008.86
2023-01-04T05:10:56.888Z,1008.80
2023-01-04T05:11:56.892Z,1008.85
2023-01-04T05:12:58.098Z,1008.81
2023-01-04T05:13:56.852Z,1008.80
2023-01-04T05:14:56.864Z,1008.69
2023-01-04T05:15:56.812Z,1008.81
2023-01-04T05:16:56.899Z,1008.78
2023-01-04T05:17:56.813Z,1008.87
2023-01-04T05:18:56.828Z,1008.73
2023-01-04T05:19:56.771Z,1008.73
2023-01-04T05:20:56.777Z,1008.69
2023-01-04T05:21:56.769Z,1008.70
2023-01-04T05:22:56.733Z,1008.68
2023-01-04T05:23:56.745Z,1008.66
2023-01-04T05:24:56.740Z,1008.64
2023-01-04T05:25:56.696Z,1008.62
2023-01-04T05:26:56.682Z,1008.68
2023-01-04T05:27:56.688Z,1008.81
2023-01-04T05:28:56.667Z,1008.77
2023-01-04T05:29:56.694Z,1008.73
2023-01-04T05:30:57.099Z,1008.68
2023-01-04T05:31:56.711Z,1008.65
2023-01-04T05:32:56.668Z,1008.57
2023-01-04T05:33:56.627Z,1008.52
2023-01-04T05:34:56.598Z,1008.49
2023-01-04T05:35:56.592Z,1008.45
2023-01-04T05:36:56.630Z,1008.50
2023-01-04T05:37:56.605Z,1008.52
2023-01-04T05:38:56.591Z,1008.50
2023-01-04T05:39:56.543Z,1008.43
2023-01-04T05:40:56.571Z,1008.43
2023-01-04T05:41:56.542Z,1008.48
2023-01-04T05:42:56.540Z,1008.47
2023-01-04T05:43:56.503Z,1008.40
2023-01-04T05:44:56.566Z,1008.36
2023-01-04T05:45:56.537Z,1008.30
2023-01-04T05:46:56.457Z,1008.40
2023-01-04T05:47:56.461Z,1008.29
2023-01-04T05:48:56.456Z,1008.21
2023-01-04T05:49:57.080Z,1008.17
2023-01-04T05:50:56.416Z,1008.18
2023-01-04T05:51:56.412Z,1008.04
2023-01-04T05:52:56.398Z,1008.19
2023-01-04T05:53:56.385Z,1008.20
2023-01-04T05:54:56.403Z,1008.08
2023-01-04T05:55:56.353Z,1008.04
2023-01-04T05:56:56.354Z,1008.09
2023-01-04T05:57:56.335Z,1008.08
2023-01-04T05:58:56.322Z,1008.10
2023-01-04T05:59:56.306Z,1008.10
2023-01-04T06:00:56.347Z,1008.10
2023-01-04T06:01:56.367Z,1008.09
2023-01-04T06:02:56.391Z,1008.04
2023-01-04T06:03:56.329Z,1008.10
2023-01-04T06:04:59.132Z,1008.00
2023-01-04T06:05:56.256Z,1008.01
2023-01-04T06:06:56.287Z,1008.03
2023-01-04T06:07:56.256Z,1008.13
2023-01-04T06:08:56.206Z,1007.98
2023-01-04T06:09:56.215Z,1007.97
2023-01-04T06:10:56.199Z,1007.98
2023-01-04T06:11:56.185Z,1007.94
2023-01-04T06:12:56.210Z,1007.92
2023-01-04T06:13:56.230Z,1007.90
2023-01-04T06:14:56.157Z,1007.91
2023-01-04T06:15:56.141Z,1007.87
2023-01-04T06:16:56.183Z,1007.94
2023-01-04T06:17:56.142Z,1007.87
2023-01-04T06:18:56.182Z,1007.80
2023-01-04T06:19:56.092Z,1007.85
2023-01-04T06:20:56.103Z,1007.81
2023-01-04T06:21:56.065Z,1007.88
2023-01-04T06:22:56.058Z,1007.86
2023-01-04T06:23:56.057Z,1007.80
2023-01-04T06:24:56.098Z,1007.81
2023-01-04T06:25:56.033Z,1007.91
2023-01-04T06:26:56.025Z,1007.86
2023-01-04T06:27:56.023Z,1007.76
2023-01-04T06:28:55.992Z,1007.76
2023-01-04T06:29:56.002Z,1007.78
2023-01-04T06:30:56.018Z,1007.83
2023-01-04T06:31:55.950Z,1007.68
2023-01-04T06:32:55.946Z,1007.67
2023-01-04T06:33:55.925Z,1007.69
2023-01-04T06:34:55.953Z,1007.63
2023-01-04T06:35:55.942Z,1007.66
2023-01-04T06:36:55.909Z,1007.57
2023-01-04T06:37:55.888Z,1007.66
2023-01-04T06:38:55.913Z,1007.69
2023-01-04T06:39:55.887Z,1007.65
2023-01-04T06:40:55.925Z,1007.58
2023-01-04T06:42:01.927Z,1007.60
2023-01-04T06:42:55.841Z,1007.60
2023-01-04T06:43:55.827Z,1007.68
2023-01-04T06:44:55.818Z,1007.67
2023-01-04T06:45:55.871Z,1007.49
2023-01-04T06:46:55.802Z,1007.50
2023-01-04T06:47:55.823Z,1007.62
2023-01-04T06:48:55.794Z,1007.55
2023-01-04T06:49:55.754Z,1007.68
2023-01-04T06:50:55.728Z,1007.60
2023-01-04T06:51:55.730Z,1007.62
2023-01-04T06:52:55.731Z,1007.59
2023-01-04T06:53:55.743Z,1007.61
2023-01-04T06:54:55.683Z,1007.60
2023-01-04T06:55:55.710Z,1007.47
2023-01-04T06:56:55.658Z,1007.54
2023-01-04T06:57:59.484Z,1007.50
2023-01-04T06:58:55.649Z,1007.58
2023-01-04T06:59:55.696Z,1007.52
2023-01-04T07:00:55.652Z,1007.49
2023-01-04T07:01:55.730Z,1007.44
2023-01-04T07:03:15.020Z,1007.54
2023-01-04T07:03:55.593Z,1007.47
2023-01-04T07:04:55.667Z,1007.53
2023-01-04T07:05:55.621Z,1007.50
2023-01-04T07:06:55.573Z,1007.51
2023-01-04T07:07:55.556Z,1007.49
2023-01-04T07:08:55.557Z,1007.47
2023-01-04T07:09:55.527Z,1007.46
2023-01-04T07:10:55.522Z,1007.53
2023-01-04T07:11:55.564Z,1007.39
2023-01-04T07:12:55.478Z,1007.37
2023-01-04T07:13:55.476Z,1007.48
2023-01-04T07:14:55.456Z,1007.53
2023-01-04T07:15:55.550Z,1007.56
2023-01-04T07:16:55.462Z,1007.50
2023-01-04T07:17:55.480Z,1007.44
2023-01-04T07:18:55.409Z,1007.45
2023-01-04T07:19:55.433Z,1007.60
2023-01-04T07:20:55.380Z,1007.55
2023-01-04T07:21:55.391Z,1007.52
2023-01-04T07:22:55.386Z,1007.59
2023-01-04T07:23:56.517Z,1007.52
2023-01-04T07:24:56.067Z,1007.53
2023-01-04T07:25:55.333Z,1007.55
2023-01-04T07:26:55.347Z,1007.55
2023-01-04T07:27:55.315Z,1007.48
2023-01-04T07:28:55.303Z,1007.50
2023-01-04T07:29:55.371Z,1007.54
2023-01-04T07:30:55.328Z,1007.50
2023-01-04T07:31:55.292Z,1007.55
2023-01-04T07:32:55.250Z,1007.45
2023-01-04T07:33:55.247Z,1007.43
2023-01-04T07:34:55.236Z,1007.36
2023-01-04T07:35:55.268Z,1007.36
2023-01-04T07:36:55.242Z,1007.31
2023-01-04T07:37:58.583Z,1007.24
2023-01-04T07:38:55.192Z,1007.25
2023-01-04T07:39:55.183Z,1007.30
2023-01-04T07:40:56.292Z,1007.26
2023-01-04T07:41:55.198Z,1007.31
2023-01-04T07:42:55.158Z,1007.34
2023-01-04T07:43:55.176Z,1007.29
2023-01-04T07:44:55.149Z,1007.32
2023-01-04T07:45:55.191Z,1007.24
2023-01-04T07:46:55.246Z,1007.19
2023-01-04T07:47:55.153Z,1007.25
2023-01-04T07:48:55.115Z,1007.17
2023-01-04T07:49:55.074Z,1007.19
2023-01-04T07:50:55.084Z,1007.16
2023-01-04T07:51:55.027Z,1007.21
2023-01-04T07:52:55.063Z,1007.24
2023-01-04T07:53:55.038Z,1007.30
2023-01-04T07:54:54.999Z,1007.24
2023-01-04T07:55:55.008Z,1007.27
2023-01-04T07:56:54.988Z,1007.24
2023-01-04T07:57:55.013Z,1007.25
2023-01-04T07:58:55.003Z,1007.23
2023-01-04T07:59:54.978Z,1007.26
2023-01-04T08:00:54.938Z,1007.24
2023-01-04T08:01:55.101Z,1007.30
2023-01-04T08:02:55.069Z,1007.28
2023-01-04T08:03:54.941Z,1007.27
2023-01-04T08:04:55.160Z,1007.26
2023-01-04T08:05:54.884Z,1007.34
2023-01-04T08:06:54.901Z,1007.33
2023-01-04T08:07:54.905Z,1007.29
2023-01-04T08:08:54.862Z,1007.29
2023-01-04T08:09:54.886Z,1007.16
2023-01-04T08:10:55.564Z,1007.18
2023-01-04T08:11:54.835Z,1007.24
2023-01-04T08:12:54.838Z,1007.34
2023-01-04T08:13:54.833Z,1007.23
2023-01-04T08:14:54.856Z,1007.26
2023-01-04T08:15:54.867Z,1007.20
2023-01-04T08:16:54.794Z,1007.13
2023-01-04T08:17:54.777Z,1007.18
2023-01-04T08:18:54.740Z,1007.28
2023-01-04T08:19:54.717Z,1007.20
2023-01-04T08:20:58.484Z,1007.18
2023-01-04T08:21:54.740Z,1007.18
2023-01-04T08:22:54.754Z,1007.18
2023-01-04T08:23:54.714Z,1007.09
2023-01-04T08:24:54.671Z,1007.13
2023-01-04T08:25:54.675Z,1007.15
2023-01-04T08:26:54.635Z,1007.26
2023-01-04T08:27:54.650Z,1007.12
2023-01-04T08:28:54.732Z,1007.17
2023-01-04T08:29:54.674Z,1007.20
2023-01-04T08:30:54.628Z,1007.12
2023-01-04T08:31:54.609Z,1007.16
2023-01-04T08:32:54.616Z,1007.19
2023-01-04T08:33:54.635Z,1007.06
2023-01-04T08:34:54.651Z,1007.08
2023-01-04T08:35:54.611Z,1007.15
2023-01-04T08:36:54.539Z,1007.06
2023-01-04T08:37:54.534Z,1007.12
2023-01-04T08:39:02.354Z,1007.12
2023-01-04T08:39:54.520Z,1007.14
2023-01-04T08:41:00.065Z,1007.09
2023-01-04T08:42:02.099Z,1007.07
2023-01-04T08:42:54.463Z,1007.08
2023-01-04T08:43:54.445Z,1007.06
2023-01-04T08:44:59.191Z,1007.02
2023-01-04T08:45:54.441Z,1007.02
2023-01-04T08:46:54.559Z,1006.93
2023-01-04T08:47:54.415Z,1006.97
2023-01-04T08:48:54.396Z,1006.94
2023-01-04T08:49:54.420Z,1006.82
2023-01-04T08:50:54.377Z,1006.94
2023-01-04T08:51:54.361Z,1006.93
2023-01-04T08:52:54.443Z,1006.91
2023-01-04T08:53:54.334Z,1006.81
2023-01-04T08:54:54.320Z,1006.85
2023-01-04T08:55:54.311Z,1006.76
2023-01-04T08:56:54.325Z,1006.80
2023-01-04T08:57:54.356Z,1006.88
2023-01-04T08:58:54.331Z,1006.80
2023-01-04T08:59:54.270Z,1006.75
2023-01-04T09:00:54.259Z,1006.76
2023-01-04T09:01:57.400Z,1006.76
2023-01-04T09:02:54.372Z,1006.70
2023-01-04T09:03:54.237Z,1006.71
2023-01-04T09:04:54.370Z,1006.74
2023-01-04T09:05:54.192Z,1006.64
2023-01-04T09:06:54.199Z,1006.63
2023-01-04T09:07:54.172Z,1006.69
2023-01-04T09:08:54.188Z,1006.73
2023-01-04T09:09:54.178Z,1006.69
2023-01-04T09:10:54.143Z,1006.64
2023-01-04T09:11:54.128Z,1006.59
2023-01-04T09:12:54.161Z,1006.59
2023-01-04T09:13:54.100Z,1006.63
2023-01-04T09:14:54.102Z,1006.61
2023-01-04T09:15:54.196Z,1006.63
2023-01-04T09:16:54.076Z,1006.61
2023-01-04T09:18:29.210Z,1006.66
2023-01-04T09:18:54.068Z,1006.49
2023-01-04T09:19:54.031Z,1006.62
2023-01-04T09:20:54.030Z,1006.66
2023-01-04T09:21:54.101Z,1006.56
2023-01-04T09:22:54.150Z,1006.57
2023-01-04T09:23:53.989Z,1006.58
2023-01-04T09:24:53.981Z,1006.59
2023-01-04T09:25:53.968Z,1006.66
2023-01-04T09:26:53.980Z,1006.66
2023-01-04T09:27:53.981Z,1006.63
2023-01-04T09:28:53.967Z,1006.62
2023-01-04T09:29:53.925Z,1006.63
2023-01-04T09:30:53.961Z,1006.68
2023-01-04T09:31:53.969Z,1006.68
2023-01-04T09:32:53.948Z,1006.70
2023-01-04T09:34:53.874Z,1006.63
2023-01-04T09:35:53.857Z,1006.57
2023-01-04T09:36:53.856Z,1006.52
2023-01-04T09:37:53.838Z,1006.49
2023-01-04T09:38:53.830Z,1006.51
2023-01-04T09:39:53.835Z,1006.53
2023-01-04T09:40:53.801Z,1006.55
2023-01-04T09:41:53.969Z,1006.52
2023-01-04T09:43:20.652Z,1006.54
2023-01-04T09:43:53.770Z,1006.56
2023-01-04T09:45:53.748Z,1006.56
2023-01-04T09:46:53.829Z,1006.44
2023-01-04T09:47:53.730Z,1006.53
2023-01-04T09:48:53.708Z,1006.51
2023-01-04T09:49:53.698Z,1006.50
2023-01-04T09:50:53.713Z,1006.40
2023-01-04T09:51:53.699Z,1006.43
2023-01-04T09:52:53.784Z,1006.66
2023-01-04T09:53:53.691Z,1006.52
2023-01-04T09:54:55.122Z,1006.46
2023-01-04T09:55:53.634Z,1006.52
2023-01-04T09:56:53.657Z,1006.49
2023-01-04T09:57:53.609Z,1006.48
2023-01-04T09:58:53.594Z,1006.56
2023-01-04T09:59:53.579Z,1006.47
2023-01-04T10:00:53.729Z,1006.50
2023-01-04T10:01:53.943Z,1006.42
2023-01-04T10:02:53.862Z,1006.41
2023-01-04T10:03:53.613Z,1006.42
2023-01-04T10:04:53.526Z,1006.41
2023-01-04T10:05:53.527Z,1006.46
2023-01-04T10:06:53.535Z,1006.38
2023-01-04T10:07:53.495Z,1006.41
2023-01-04T10:08:53.480Z,1006.41
2023-01-04T10:09:53.476Z,1006.38
2023-01-04T10:10:53.471Z,1006.35
2023-01-04T10:11:53.487Z,1006.34
2023-01-04T10:12:59.548Z,1006.37
2023-01-04T10:13:53.448Z,1006.31
2023-01-04T10:14:53.414Z,1006.41
2023-01-04T10:15:53.427Z,1006.27
2023-01-04T10:19:59.685Z,1006.28
2023-01-04T10:21:32.036Z,1006.16
2023-01-04T10:21:56.496Z,1006.24
2023-01-04T10:22:56.387Z,1006.32
2023-01-04T10:23:56.387Z,1006.33
2023-01-04T10:24:56.381Z,1006.29
2023-01-04T10:25:56.383Z,1006.32
2023-01-04T10:26:56.374Z,1006.31
2023-01-04T10:27:56.345Z,1006.33
2023-01-04T10:28:56.325Z,1006.24
2023-01-04T10:29:56.316Z,1006.23
2023-01-04T10:30:56.339Z,1006.31
2023-01-04T10:31:56.354Z,1006.28
2023-01-04T10:32:56.304Z,1006.23
2023-01-04T10:33:56.289Z,1006.23
2023-01-04T10:34:56.254Z,1006.16
2023-01-04T10:35:56.280Z,1006.16
2023-01-04T10:36:56.599Z,1006.25
2023-01-04T10:37:56.228Z,1006.21
2023-01-04T10:38:56.213Z,1006.19
2023-01-04T10:39:56.205Z,1006.16
2023-01-04T10:40:56.182Z,1006.13
2023-01-04T10:41:56.182Z,1006.10
2023-01-04T10:42:56.185Z,1006.08
2023-01-04T10:44:11.942Z,1006.07
2023-01-04T10:44:56.144Z,1006.02
2023-01-04T10:45:56.148Z,1006.00
2023-01-04T10:46:56.130Z,1006.22
2023-01-04T10:47:56.118Z,1006.11
2023-01-04T10:48:56.144Z,1006.02
2023-01-04T10:49:56.079Z,1005.97
2023-01-04T10:50:56.076Z,1006.03
2023-01-04T10:51:56.068Z,1006.00
2023-01-04T10:52:56.182Z,1006.09
2023-01-04T10:53:56.034Z,1006.05
2023-01-04T10:54:56.054Z,1006.06
2023-01-04T10:56:25.071Z,1006.11
2023-01-04T10:56:56.026Z,1006.05
2023-01-04T10:57:55.987Z,1006.10
2023-01-04T10:58:56.027Z,1006.05
2023-01-04T10:59:55.982Z,1006.03
2023-01-04T11:00:56.098Z,1006.06
2023-01-04T11:01:56.156Z,1006.05
2023-01-04T11:02:56.160Z,1006.09
2023-01-04T11:03:55.919Z,1006.01
2023-01-04T11:04:55.975Z,1006.33
2023-01-04T11:05:55.894Z,1006.12
2023-01-04T11:06:55.913Z,1006.05
2023-01-04T11:07:55.902Z,1006.04
2023-01-04T11:08:55.861Z,1006.06
2023-01-04T11:09:55.856Z,1005.98
2023-01-04T11:10:55.869Z,1006.04
2023-01-04T11:11:55.942Z,1006.01
2023-01-04T11:12:55.819Z,1005.92
2023-01-04T11:13:55.856Z,1005.98
2023-01-04T11:14:55.864Z,1005.95
2023-01-04T11:15:56.020Z,1005.95
2023-01-04T11:16:55.918Z,1005.92
2023-01-04T11:17:55.754Z,1005.97
2023-01-04T11:18:55.749Z,1005.89
2023-01-04T11:19:55.755Z,1005.88
2023-01-04T11:20:55.726Z,1005.90
2023-01-04T11:21:55.744Z,1005.78
2023-01-04T11:22:55.725Z,1005.90
2023-01-04T11:23:59.741Z,1005.83
2023-01-04T11:25:56.514Z,1005.73
2023-01-04T11:26:55.685Z,1005.79
2023-01-04T11:27:55.646Z,1005.73
2023-01-04T11:28:55.695Z,1005.78
2023-01-04T11:29:55.641Z,1005.79
2023-01-04T11:30:55.629Z,1005.86
2023-01-04T11:31:55.687Z,1005.72
2023-01-04T11:32:55.633Z,1005.95
2023-01-04T11:33:55.628Z,1005.81
2023-01-04T11:34:55.605Z,1005.73
2023-01-04T11:35:55.688Z,1005.72
2023-01-04T11:36:55.549Z,1005.75
2023-01-04T11:37:55.564Z,1005.68
2023-01-04T11:38:55.607Z,1005.70
2023-01-04T11:39:55.571Z,1005.66
2023-01-04T11:40:55.523Z,1005.63
2023-01-04T11:42:02.303Z,1005.71
2023-01-04T11:42:55.479Z,1005.69
2023-01-04T11:43:55.602Z,1005.53
2023-01-04T11:44:55.539Z,1005.68
2023-01-04T11:45:55.616Z,1005.63
2023-01-04T11:46:55.513Z,1005.64
2023-01-04T11:47:55.462Z,1005.59
2023-01-04T11:48:55.511Z,1005.55
2023-01-04T11:49:55.435Z,1005.50
2023-01-04T11:50:55.432Z,1005.54
2023-01-04T11:51:55.481Z,1005.59
2023-01-04T11:52:55.446Z,1005.40
2023-01-04T11:53:55.389Z,1005.41
2023-01-04T11:54:55.350Z,1005.42
2023-01-04T11:55:55.365Z,1005.40
2023-01-04T11:56:55.335Z,1005.39
2023-01-04T11:57:55.301Z,1005.32
2023-01-04T11:58:55.673Z,1005.43
2023-01-04T11:59:55.361Z,1005.38
2023-01-04T12:00:55.362Z,1005.38
2023-01-04T12:01:55.421Z,1005.41
2023-01-04T12:03:03.032Z,1005.35
2023-01-04T12:03:55.339Z,1005.27
2023-01-04T12:04:55.314Z,1005.19
2023-01-04T12:05:55.230Z,1005.27
2023-01-04T12:06:55.259Z,1005.35
2023-01-04T12:07:55.246Z,1005.22
2023-01-04T12:08:55.200Z,1005.30
2023-01-04T12:09:55.253Z,1005.25
2023-01-04T12:10:55.170Z,1005.23